sensor_id;sensor_type;location;lat;lon;timestamp;P1;durP1;ratioP1;P2;durP2;ratioP2
32748;SDS011;19119;52.474;13.710;2023-06-10T00:02:04;9.63;;;4.28;;
32748;SDS011;19119;52.474;13.710;2023-06-10T00:04:30;12.55;;;4.95;;
32748;SDS011;19119;52.474;13.710;2023-06-10T00:06:56;11.20;;;4.40;;
32748;SDS011;19119;52.474;13.710;2023-06-10T00:09:22;11.27;;;4.47;;
32748;SDS011;19119;52.474;13.710;2023-06-10T00:11:47;7.78;;;3.95;;
32748;SDS011;19119;52.474;13.710;2023-06-10T00:14:13;11.68;;;4.25;;
32748;SDS011;19119;52.474;13.710;2023-06-10T00:16:39;11.10;;;4.38;;
32748;SDS011;19119;52.474;13.710;2023-06-10T00:19:05;10.55;;;3.83;;
32748;SDS011;19119;52.474;13.710;2023-06-10T00:21:31;8.98;;;4.07;;
32748;SDS011;19119;52.474;13.710;2023-06-10T00:24:02;14.05;;;4.32;;
32748;SDS011;19119;52.474;13.710;2023-06-10T00:26:30;13.20;;;4.05;;
32748;SDS011;19119;52.474;13.710;2023-06-10T00:28:56;12.00;;;4.35;;
32748;SDS011;19119;52.474;13.710;2023-06-10T00:31:21;13.00;;;4.47;;
32748;SDS011;19119;52.474;13.710;2023-06-10T00:33:47;11.10;;;4.13;;
32748;SDS011;19119;52.474;13.710;2023-06-10T00:36:12;15.70;;;4.60;;
32748;SDS011;19119;52.474;13.710;2023-06-10T00:38:38;8.98;;;4.55;;
32748;SDS011;19119;52.474;13.710;2023-06-10T00:41:05;10.43;;;4.07;;
32748;SDS011;19119;52.474;13.710;2023-06-10T00:43:31;9.82;;;3.60;;
32748;SDS011;19119;52.474;13.710;2023-06-10T00:45:57;9.90;;;4.18;;
32748;SDS011;19119;52.474;13.710;2023-06-10T00:48:22;9.82;;;3.65;;
32748;SDS011;19119;52.474;13.710;2023-06-10T00:50:48;9.98;;;4.68;;
32748;SDS011;19119;52.474;13.710;2023-06-10T00:53:14;12.45;;;4.22;;
32748;SDS011;19119;52.474;13.710;2023-06-10T00:55:40;9.77;;;4.47;;
32748;SDS011;19119;52.474;13.710;2023-06-10T00:58:06;9.13;;;4.57;;
32748;SDS011;19119;52.474;13.710;2023-06-10T01:00:33;12.55;;;5.10;;
32748;SDS011;19119;52.474;13.710;2023-06-10T01:02:58;8.85;;;4.22;;
32748;SDS011;19119;52.474;13.710;2023-06-10T01:05:24;10.18;;;4.07;;
32748;SDS011;19119;52.474;13.710;2023-06-10T01:13:03;7.60;;;4.43;;
32748;SDS011;19119;52.474;13.710;2023-06-10T01:15:32;15.38;;;5.40;;
32748;SDS011;19119;52.474;13.710;2023-06-10T01:17:59;17.95;;;4.90;;
32748;SDS011;19119;52.474;13.710;2023-06-10T01:20:27;10.52;;;4.43;;
32748;SDS011;19119;52.474;13.710;2023-06-10T01:22:57;7.00;;;3.75;;
32748;SDS011;19119;52.474;13.710;2023-06-10T01:25:24;13.98;;;4.43;;
32748;SDS011;19119;52.474;13.710;2023-06-10T01:28:24;13.10;;;4.70;;
32748;SDS011;19119;52.474;13.710;2023-06-10T01:33:29;11.45;;;5.22;;
32748;SDS011;19119;52.474;13.710;2023-06-10T01:35:58;10.23;;;4.70;;
32748;SDS011;19119;52.474;13.710;2023-06-10T01:38:25;16.17;;;4.88;;
32748;SDS011;19119;52.474;13.710;2023-06-10T01:40:55;13.55;;;5.40;;
32748;SDS011;19119;52.474;13.710;2023-06-10T01:43:21;9.77;;;4.78;;
32748;SDS011;19119;52.474;13.710;2023-06-10T01:45:47;12.00;;;4.85;;
32748;SDS011;19119;52.474;13.710;2023-06-10T01:48:13;12.68;;;4.47;;
32748;SDS011;19119;52.474;13.710;2023-06-10T01:50:38;11.30;;;4.45;;
32748;SDS011;19119;52.474;13.710;2023-06-10T01:53:04;12.38;;;4.97;;
32748;SDS011;19119;52.474;13.710;2023-06-10T01:55:33;10.35;;;4.53;;
32748;SDS011;19119;52.474;13.710;2023-06-10T01:57:58;11.63;;;5.38;;
32748;SDS011;19119;52.474;13.710;2023-06-10T02:00:24;10.88;;;6.32;;
32748;SDS011;19119;52.474;13.710;2023-06-10T02:02:49;8.68;;;4.90;;
32748;SDS011;19119;52.474;13.710;2023-06-10T02:05:15;11.20;;;4.53;;
32748;SDS011;19119;52.474;13.710;2023-06-10T02:07:41;11.63;;;5.13;;
32748;SDS011;19119;52.474;13.710;2023-06-10T02:10:06;10.82;;;4.53;;
32748;SDS011;19119;52.474;13.710;2023-06-10T02:12:33;12.13;;;5.22;;
32748;SDS011;19119;52.474;13.710;2023-06-10T02:14:58;13.75;;;5.07;;
32748;SDS011;19119;52.474;13.710;2023-06-10T02:17:24;9.00;;;4.20;;
32748;SDS011;19119;52.474;13.710;2023-06-10T02:19:50;11.07;;;4.57;;
32748;SDS011;19119;52.474;13.710;2023-06-10T02:22:21;13.65;;;4.93;;
32748;SDS011;19119;52.474;13.710;2023-06-10T02:24:48;12.63;;;5.00;;
32748;SDS011;19119;52.474;13.710;2023-06-10T02:27:14;16.75;;;5.40;;
32748;SDS011;19119;52.474;13.710;2023-06-10T02:29:41;9.63;;;5.50;;
32748;SDS011;19119;52.474;13.710;2023-06-10T02:32:07;15.93;;;5.15;;
32748;SDS011;19119;52.474;13.710;2023-06-10T02:34:33;13.05;;;5.10;;
32748;SDS011;19119;52.474;13.710;2023-06-10T02:36:58;13.82;;;4.93;;
32748;SDS011;19119;52.474;13.710;2023-06-10T02:39:24;14.07;;;5.32;;
32748;SDS011;19119;52.474;13.710;2023-06-10T02:41:50;11.90;;;5.95;;
32748;SDS011;19119;52.474;13.710;2023-06-10T02:44:17;10.75;;;5.30;;
32748;SDS011;19119;52.474;13.710;2023-06-10T02:46:43;10.93;;;5.85;;
32748;SDS011;19119;52.474;13.710;2023-06-10T02:49:09;15.77;;;5.13;;
32748;SDS011;19119;52.474;13.710;2023-06-10T02:51:34;16.23;;;6.15;;
32748;SDS011;19119;52.474;13.710;2023-06-10T02:54:00;14.93;;;5.55;;
32748;SDS011;19119;52.474;13.710;2023-06-10T02:56:26;15.15;;;6.13;;
32748;SDS011;19119;52.474;13.710;2023-06-10T02:58:52;8.88;;;4.47;;
32748;SDS011;19119;52.474;13.710;2023-06-10T03:01:17;12.80;;;4.90;;
32748;SDS011;19119;52.474;13.710;2023-06-10T03:03:44;16.58;;;5.28;;
32748;SDS011;19119;52.474;13.710;2023-06-10T03:06:11;12.63;;;6.35;;
32748;SDS011;19119;52.474;13.710;2023-06-10T03:08:37;13.80;;;5.93;;
32748;SDS011;19119;52.474;13.710;2023-06-10T03:11:03;13.50;;;5.43;;
32748;SDS011;19119;52.474;13.710;2023-06-10T03:13:29;13.43;;;5.43;;
32748;SDS011;19119;52.474;13.710;2023-06-10T03:15:54;10.57;;;5.32;;
32748;SDS011;19119;52.474;13.710;2023-06-10T03:18:20;13.38;;;5.32;;
32748;SDS011;19119;52.474;13.710;2023-06-10T03:20:48;12.05;;;6.00;;
32748;SDS011;19119;52.474;13.710;2023-06-10T03:23:13;10.38;;;5.90;;
32748;SDS011;19119;52.474;13.710;2023-06-10T03:25:40;10.18;;;5.38;;
32748;SDS011;19119;52.474;13.710;2023-06-10T03:28:06;11.73;;;5.55;;
32748;SDS011;19119;52.474;13.710;2023-06-10T03:30:31;10.10;;;4.80;;
32748;SDS011;19119;52.474;13.710;2023-06-10T03:32:57;11.70;;;5.28;;
32748;SDS011;19119;52.474;13.710;2023-06-10T03:35:23;10.45;;;5.03;;
32748;SDS011;19119;52.474;13.710;2023-06-10T03:37:48;9.45;;;6.00;;
32748;SDS011;19119;52.474;13.710;2023-06-10T03:40:14;12.27;;;4.68;;
32748;SDS011;19119;52.474;13.710;2023-06-10T03:42:40;17.48;;;5.53;;
32748;SDS011;19119;52.474;13.710;2023-06-10T03:45:05;16.67;;;5.22;;
32748;SDS011;19119;52.474;13.710;2023-06-10T03:47:34;12.80;;;5.43;;
32748;SDS011;19119;52.474;13.710;2023-06-10T03:50:02;13.93;;;5.35;;
32748;SDS011;19119;52.474;13.710;2023-06-10T03:52:30;10.05;;;5.75;;
32748;SDS011;19119;52.474;13.710;2023-06-10T03:54:56;11.32;;;5.70;;
32748;SDS011;19119;52.474;13.710;2023-06-10T03:57:21;10.52;;;5.43;;
32748;SDS011;19119;52.474;13.710;2023-06-10T03:59:47;11.82;;;5.90;;
32748;SDS011;19119;52.474;13.710;2023-06-10T04:02:13;10.63;;;5.25;;
32748;SDS011;19119;52.474;13.710;2023-06-10T04:04:38;12.20;;;5.47;;
32748;SDS011;19119;52.474;13.710;2023-06-10T04:07:04;11.88;;;6.38;;
32748;SDS011;19119;52.474;13.710;2023-06-10T04:09:30;9.90;;;5.38;;
32748;SDS011;19119;52.474;13.710;2023-06-10T04:11:55;11.50;;;6.18;;
32748;SDS011;19119;52.474;13.710;2023-06-10T04:14:21;13.73;;;5.65;;
32748;SDS011;19119;52.474;13.710;2023-06-10T04:16:47;14.60;;;5.75;;
32748;SDS011;19119;52.474;13.710;2023-06-10T04:19:12;15.48;;;5.90;;
32748;SDS011;19119;52.474;13.710;2023-06-10T04:21:38;13.82;;;5.32;;
32748;SDS011;19119;52.474;13.710;2023-06-10T04:24:04;8.45;;;4.63;;
32748;SDS011;19119;52.474;13.710;2023-06-10T04:26:29;11.52;;;4.95;;
32748;SDS011;19119;52.474;13.710;2023-06-10T04:28:55;10.85;;;4.97;;
32748;SDS011;19119;52.474;13.710;2023-06-10T04:31:20;10.68;;;5.05;;
32748;SDS011;19119;52.474;13.710;2023-06-10T04:33:46;9.18;;;4.85;;
32748;SDS011;19119;52.474;13.710;2023-06-10T04:36:11;10.80;;;4.72;;
32748;SDS011;19119;52.474;13.710;2023-06-10T04:38:37;8.95;;;4.65;;
32748;SDS011;19119;52.474;13.710;2023-06-10T04:41:02;10.77;;;4.75;;
32748;SDS011;19119;52.474;13.710;2023-06-10T04:43:29;10.82;;;5.18;;
32748;SDS011;19119;52.474;13.710;2023-06-10T04:45:55;23.48;;;5.63;;
32748;SDS011;19119;52.474;13.710;2023-06-10T04:48:21;20.13;;;5.22;;
32748;SDS011;19119;52.474;13.710;2023-06-10T04:50:47;12.75;;;4.90;;
32748;SDS011;19119;52.474;13.710;2023-06-10T04:53:12;10.02;;;4.68;;
32748;SDS011;19119;52.474;13.710;2023-06-10T04:55:38;10.68;;;4.72;;
32748;SDS011;19119;52.474;13.710;2023-06-10T04:58:03;9.15;;;4.68;;
32748;SDS011;19119;52.474;13.710;2023-06-10T05:00:29;10.85;;;4.40;;
32748;SDS011;19119;52.474;13.710;2023-06-10T05:02:54;10.80;;;4.20;;
32748;SDS011;19119;52.474;13.710;2023-06-10T05:05:20;11.55;;;4.53;;
32748;SDS011;19119;52.474;13.710;2023-06-10T05:07:46;9.45;;;4.53;;
32748;SDS011;19119;52.474;13.710;2023-06-10T05:10:12;8.60;;;4.80;;
32748;SDS011;19119;52.474;13.710;2023-06-10T05:12:38;9.18;;;4.75;;
32748;SDS011;19119;52.474;13.710;2023-06-10T05:15:04;9.18;;;4.57;;
32748;SDS011;19119;52.474;13.710;2023-06-10T05:17:31;8.73;;;5.10;;
32748;SDS011;19119;52.474;13.710;2023-06-10T05:19:56;8.30;;;5.43;;
32748;SDS011;19119;52.474;13.710;2023-06-10T05:22:22;7.30;;;5.32;;
32748;SDS011;19119;52.474;13.710;2023-06-10T05:24:49;12.73;;;5.18;;
32748;SDS011;19119;52.474;13.710;2023-06-10T05:27:16;9.73;;;5.45;;
32748;SDS011;19119;52.474;13.710;2023-06-10T05:29:41;10.02;;;5.05;;
32748;SDS011;19119;52.474;13.710;2023-06-10T05:32:07;9.60;;;4.65;;
32748;SDS011;19119;52.474;13.710;2023-06-10T05:34:33;9.40;;;5.10;;
32748;SDS011;19119;52.474;13.710;2023-06-10T05:36:58;8.13;;;5.32;;
32748;SDS011;19119;52.474;13.710;2023-06-10T05:39:24;8.15;;;4.82;;
32748;SDS011;19119;52.474;13.710;2023-06-10T05:41:50;10.65;;;5.30;;
32748;SDS011;19119;52.474;13.710;2023-06-10T05:44:15;9.45;;;4.95;;
32748;SDS011;19119;52.474;13.710;2023-06-10T05:46:41;8.23;;;5.22;;
32748;SDS011;19119;52.474;13.710;2023-06-10T05:49:06;11.07;;;5.70;;
32748;SDS011;19119;52.474;13.710;2023-06-10T05:51:32;8.40;;;5.07;;
32748;SDS011;19119;52.474;13.710;2023-06-10T05:53:57;10.52;;;5.63;;
32748;SDS011;19119;52.474;13.710;2023-06-10T05:56:23;10.73;;;5.65;;
32748;SDS011;19119;52.474;13.710;2023-06-10T05:58:50;10.57;;;5.40;;
32748;SDS011;19119;52.474;13.710;2023-06-10T06:01:16;10.88;;;5.18;;
32748;SDS011;19119;52.474;13.710;2023-06-10T06:03:42;8.00;;;4.80;;
32748;SDS011;19119;52.474;13.710;2023-06-10T06:06:07;10.98;;;5.65;;
32748;SDS011;19119;52.474;13.710;2023-06-10T06:08:33;9.68;;;5.40;;
32748;SDS011;19119;52.474;13.710;2023-06-10T06:10:58;7.38;;;5.07;;
32748;SDS011;19119;52.474;13.710;2023-06-10T06:13:24;11.43;;;5.53;;
32748;SDS011;19119;52.474;13.710;2023-06-10T06:15:50;10.07;;;5.57;;
32748;SDS011;19119;52.474;13.710;2023-06-10T06:18:15;14.35;;;6.20;;
32748;SDS011;19119;52.474;13.710;2023-06-10T06:20:41;10.88;;;6.38;;
32748;SDS011;19119;52.474;13.710;2023-06-10T06:23:06;8.25;;;5.10;;
32748;SDS011;19119;52.474;13.710;2023-06-10T06:25:34;9.45;;;5.78;;
32748;SDS011;19119;52.474;13.710;2023-06-10T06:28:01;8.45;;;5.65;;
32748;SDS011;19119;52.474;13.710;2023-06-10T06:30:27;6.88;;;5.45;;
32748;SDS011;19119;52.474;13.710;2023-06-10T06:32:52;7.95;;;5.78;;
32748;SDS011;19119;52.474;13.710;2023-06-10T06:35:18;13.48;;;6.10;;
32748;SDS011;19119;52.474;13.710;2023-06-10T06:37:43;9.23;;;5.88;;
32748;SDS011;19119;52.474;13.710;2023-06-10T06:40:09;10.20;;;6.22;;
32748;SDS011;19119;52.474;13.710;2023-06-10T06:42:35;12.00;;;6.15;;
32748;SDS011;19119;52.474;13.710;2023-06-10T06:45:01;11.07;;;6.05;;
32748;SDS011;19119;52.474;13.710;2023-06-10T06:47:27;10.73;;;6.43;;
32748;SDS011;19119;52.474;13.710;2023-06-10T06:49:52;19.92;;;6.82;;
32748;SDS011;19119;52.474;13.710;2023-06-10T06:52:18;15.00;;;6.20;;
32748;SDS011;19119;52.474;13.710;2023-06-10T06:54:44;7.88;;;5.15;;
32748;SDS011;19119;52.474;13.710;2023-06-10T06:57:09;10.55;;;6.30;;
32748;SDS011;19119;52.474;13.710;2023-06-10T06:59:35;9.23;;;5.90;;
32748;SDS011;19119;52.474;13.710;2023-06-10T07:02:02;9.73;;;6.18;;
32748;SDS011;19119;52.474;13.710;2023-06-10T07:04:28;8.38;;;5.78;;
32748;SDS011;19119;52.474;13.710;2023-06-10T07:06:53;13.35;;;6.40;;
32748;SDS011;19119;52.474;13.710;2023-06-10T07:09:19;13.00;;;5.35;;
32748;SDS011;19119;52.474;13.710;2023-06-10T07:11:45;11.63;;;6.57;;
32748;SDS011;19119;52.474;13.710;2023-06-10T07:14:10;12.23;;;5.60;;
32748;SDS011;19119;52.474;13.710;2023-06-10T07:16:36;11.93;;;5.55;;
32748;SDS011;19119;52.474;13.710;2023-06-10T07:19:01;15.15;;;6.18;;
32748;SDS011;19119;52.474;13.710;2023-06-10T07:21:27;20.08;;;6.75;;
32748;SDS011;19119;52.474;13.710;2023-06-10T07:23:53;11.57;;;6.65;;
32748;SDS011;19119;52.474;13.710;2023-06-10T07:26:19;10.43;;;5.97;;
32748;SDS011;19119;52.474;13.710;2023-06-10T07:28:46;10.60;;;5.60;;
32748;SDS011;19119;52.474;13.710;2023-06-10T07:31:12;10.75;;;6.20;;
32748;SDS011;19119;52.474;13.710;2023-06-10T07:33:37;15.13;;;6.65;;
32748;SDS011;19119;52.474;13.710;2023-06-10T07:36:06;13.60;;;6.07;;
32748;SDS011;19119;52.474;13.710;2023-06-10T07:38:32;13.20;;;6.45;;
32748;SDS011;19119;52.474;13.710;2023-06-10T07:40:57;13.98;;;5.97;;
32748;SDS011;19119;52.474;13.710;2023-06-10T07:43:23;14.40;;;7.30;;
32748;SDS011;19119;52.474;13.710;2023-06-10T07:45:49;12.27;;;6.47;;
32748;SDS011;19119;52.474;13.710;2023-06-10T07:48:15;9.35;;;6.18;;
32748;SDS011;19119;52.474;13.710;2023-06-10T07:50:41;49.78;;;7.95;;
32748;SDS011;19119;52.474;13.710;2023-06-10T07:53:06;14.77;;;5.85;;
32748;SDS011;19119;52.474;13.710;2023-06-10T07:55:32;8.23;;;6.07;;
32748;SDS011;19119;52.474;13.710;2023-06-10T07:57:57;12.13;;;7.13;;
32748;SDS011;19119;52.474;13.710;2023-06-10T08:00:23;11.05;;;6.43;;
32748;SDS011;19119;52.474;13.710;2023-06-10T08:02:50;11.27;;;5.90;;
32748;SDS011;19119;52.474;13.710;2023-06-10T08:05:15;10.50;;;6.38;;
32748;SDS011;19119;52.474;13.710;2023-06-10T08:07:41;9.45;;;5.68;;
32748;SDS011;19119;52.474;13.710;2023-06-10T08:10:07;9.75;;;6.22;;
32748;SDS011;19119;52.474;13.710;2023-06-10T08:12:33;9.00;;;6.18;;
32748;SDS011;19119;52.474;13.710;2023-06-10T08:14:59;16.10;;;6.70;;
32748;SDS011;19119;52.474;13.710;2023-06-10T08:17:25;9.85;;;6.35;;
32748;SDS011;19119;52.474;13.710;2023-06-10T08:19:51;14.15;;;6.30;;
32748;SDS011;19119;52.474;13.710;2023-06-10T08:22:16;13.48;;;6.05;;
32748;SDS011;19119;52.474;13.710;2023-06-10T08:24:42;10.30;;;6.63;;
32748;SDS011;19119;52.474;13.710;2023-06-10T08:27:08;8.85;;;5.93;;
32748;SDS011;19119;52.474;13.710;2023-06-10T08:29:33;8.85;;;6.00;;
32748;SDS011;19119;52.474;13.710;2023-06-10T08:31:59;11.63;;;6.72;;
32748;SDS011;19119;52.474;13.710;2023-06-10T08:34:25;10.40;;;6.28;;
32748;SDS011;19119;52.474;13.710;2023-06-10T08:36:50;10.57;;;6.22;;
32748;SDS011;19119;52.474;13.710;2023-06-10T08:39:18;11.13;;;6.93;;
32748;SDS011;19119;52.474;13.710;2023-06-10T08:41:46;11.40;;;6.22;;
32748;SDS011;19119;52.474;13.710;2023-06-10T08:44:30;14.18;;;7.15;;
32748;SDS011;19119;52.474;13.710;2023-06-10T08:46:56;13.27;;;7.00;;
32748;SDS011;19119;52.474;13.710;2023-06-10T08:49:31;12.05;;;6.25;;
32748;SDS011;19119;52.474;13.710;2023-06-10T08:52:02;13.85;;;6.45;;
32748;SDS011;19119;52.474;13.710;2023-06-10T08:54:30;19.38;;;7.10;;
32748;SDS011;19119;52.474;13.710;2023-06-10T08:56:59;11.75;;;6.22;;
32748;SDS011;19119;52.474;13.710;2023-06-10T08:59:31;11.40;;;5.95;;
32748;SDS011;19119;52.474;13.710;2023-06-10T09:01:57;9.23;;;6.82;;
32748;SDS011;19119;52.474;13.710;2023-06-10T09:04:24;12.07;;;7.03;;
32748;SDS011;19119;52.474;13.710;2023-06-10T09:06:50;7.55;;;5.45;;
32748;SDS011;19119;52.474;13.710;2023-06-10T09:09:17;9.40;;;5.80;;
32748;SDS011;19119;52.474;13.710;2023-06-10T09:11:45;12.30;;;6.68;;
32748;SDS011;19119;52.474;13.710;2023-06-10T09:14:10;6.95;;;5.07;;
32748;SDS011;19119;52.474;13.710;2023-06-10T09:16:37;9.95;;;5.90;;
32748;SDS011;19119;52.474;13.710;2023-06-10T09:19:04;9.07;;;5.60;;
32748;SDS011;19119;52.474;13.710;2023-06-10T09:21:33;9.95;;;6.43;;
32748;SDS011;19119;52.474;13.710;2023-06-10T09:24:00;11.43;;;6.32;;
32748;SDS011;19119;52.474;13.710;2023-06-10T09:26:29;8.75;;;5.75;;
32748;SDS011;19119;52.474;13.710;2023-06-10T09:29:05;11.43;;;6.10;;
32748;SDS011;19119;52.474;13.710;2023-06-10T09:31:36;8.13;;;5.55;;
32748;SDS011;19119;52.474;13.710;2023-06-10T09:36:35;9.88;;;6.03;;
32748;SDS011;19119;52.474;13.710;2023-06-10T09:39:01;10.95;;;5.68;;
32748;SDS011;19119;52.474;13.710;2023-06-10T09:41:34;6.82;;;5.40;;
32748;SDS011;19119;52.474;13.710;2023-06-10T09:44:00;8.02;;;5.55;;
32748;SDS011;19119;52.474;13.710;2023-06-10T09:46:30;10.18;;;5.43;;
32748;SDS011;19119;52.474;13.710;2023-06-10T09:48:59;10.30;;;5.43;;
32748;SDS011;19119;52.474;13.710;2023-06-10T09:51:25;8.40;;;5.45;;
32748;SDS011;19119;52.474;13.710;2023-06-10T09:53:51;8.88;;;5.97;;
32748;SDS011;19119;52.474;13.710;2023-06-10T09:56:17;7.32;;;5.05;;
32748;SDS011;19119;52.474;13.710;2023-06-10T09:58:44;6.82;;;5.20;;
32748;SDS011;19119;52.474;13.710;2023-06-10T10:01:12;12.98;;;5.45;;
32748;SDS011;19119;52.474;13.710;2023-06-10T10:03:43;9.75;;;5.18;;
32748;SDS011;19119;52.474;13.710;2023-06-10T10:06:13;12.43;;;5.78;;
32748;SDS011;19119;52.474;13.710;2023-06-10T10:08:40;12.77;;;5.28;;
32748;SDS011;19119;52.474;13.710;2023-06-10T10:11:06;9.98;;;6.18;;
32748;SDS011;19119;52.474;13.710;2023-06-10T10:13:35;8.63;;;5.10;;
32748;SDS011;19119;52.474;13.710;2023-06-10T10:16:04;7.88;;;4.93;;
32748;SDS011;19119;52.474;13.710;2023-06-10T10:18:33;7.72;;;5.25;;
32748;SDS011;19119;52.474;13.710;2023-06-10T10:21:04;11.90;;;5.05;;
32748;SDS011;19119;52.474;13.710;2023-06-10T10:23:40;7.63;;;5.22;;
32748;SDS011;19119;52.474;13.710;2023-06-10T10:26:07;10.05;;;5.47;;
32748;SDS011;19119;52.474;13.710;2023-06-10T10:28:37;9.65;;;4.57;;
32748;SDS011;19119;52.474;13.710;2023-06-10T10:31:16;9.10;;;4.80;;
32748;SDS011;19119;52.474;13.710;2023-06-10T10:36:17;9.23;;;4.07;;
32748;SDS011;19119;52.474;13.710;2023-06-10T10:38:44;8.20;;;3.90;;
32748;SDS011;19119;52.474;13.710;2023-06-10T10:41:12;8.38;;;3.33;;
32748;SDS011;19119;52.474;13.710;2023-06-10T10:43:39;7.72;;;3.95;;
32748;SDS011;19119;52.474;13.710;2023-06-10T10:46:09;5.78;;;3.83;;
32748;SDS011;19119;52.474;13.710;2023-06-10T10:48:38;4.50;;;3.72;;
32748;SDS011;19119;52.474;13.710;2023-06-10T10:51:06;35.20;;;5.47;;
32748;SDS011;19119;52.474;13.710;2023-06-10T10:53:32;5.40;;;3.35;;
32748;SDS011;19119;52.474;13.710;2023-06-10T10:55:58;6.55;;;3.58;;
32748;SDS011;19119;52.474;13.710;2023-06-10T10:58:32;7.70;;;3.60;;
32748;SDS011;19119;52.474;13.710;2023-06-10T11:00:57;5.97;;;4.28;;
32748;SDS011;19119;52.474;13.710;2023-06-10T11:03:24;6.65;;;3.88;;
32748;SDS011;19119;52.474;13.710;2023-06-10T11:05:56;10.63;;;4.55;;
32748;SDS011;19119;52.474;13.710;2023-06-10T11:10:57;5.22;;;3.55;;
32748;SDS011;19119;52.474;13.710;2023-06-10T11:13:24;6.32;;;3.97;;
32748;SDS011;19119;52.474;13.710;2023-06-10T11:15:51;7.07;;;3.47;;
32748;SDS011;19119;52.474;13.710;2023-06-10T11:18:24;9.85;;;3.53;;
32748;SDS011;19119;52.474;13.710;2023-06-10T11:23:25;9.10;;;3.60;;
32748;SDS011;19119;52.474;13.710;2023-06-10T11:31:26;7.53;;;4.15;;
32748;SDS011;19119;52.474;13.710;2023-06-10T11:33:53;10.35;;;4.07;;
32748;SDS011;19119;52.474;13.710;2023-06-10T11:36:23;7.47;;;5.13;;
32748;SDS011;19119;52.474;13.710;2023-06-10T11:38:50;8.02;;;4.65;;
32748;SDS011;19119;52.474;13.710;2023-06-10T11:41:20;9.02;;;4.68;;
32748;SDS011;19119;52.474;13.710;2023-06-10T11:43:46;7.25;;;4.78;;
32748;SDS011;19119;52.474;13.710;2023-06-10T11:46:12;6.85;;;4.32;;
32748;SDS011;19119;52.474;13.710;2023-06-10T11:48:39;9.20;;;5.65;;
32748;SDS011;19119;52.474;13.710;2023-06-10T11:51:13;9.77;;;5.57;;
32748;SDS011;19119;52.474;13.710;2023-06-10T11:53:38;9.70;;;5.47;;
32748;SDS011;19119;52.474;13.710;2023-06-10T11:56:04;7.50;;;5.35;;
32748;SDS011;19119;52.474;13.710;2023-06-10T11:58:30;8.98;;;5.70;;
32748;SDS011;19119;52.474;13.710;2023-06-10T12:00:55;6.05;;;4.45;;
32748;SDS011;19119;52.474;13.710;2023-06-10T12:03:23;8.13;;;4.85;;
32748;SDS011;19119;52.474;13.710;2023-06-10T12:06:04;9.02;;;5.07;;
32748;SDS011;19119;52.474;13.710;2023-06-10T12:08:31;11.85;;;5.53;;
32748;SDS011;19119;52.474;13.710;2023-06-10T12:11:06;10.98;;;5.55;;
32748;SDS011;19119;52.474;13.710;2023-06-10T12:13:31;10.75;;;5.15;;
32748;SDS011;19119;52.474;13.710;2023-06-10T12:16:07;8.65;;;5.00;;
32748;SDS011;19119;52.474;13.710;2023-06-10T12:18:36;10.95;;;5.38;;
32748;SDS011;19119;52.474;13.710;2023-06-10T12:21:01;8.93;;;4.97;;
32748;SDS011;19119;52.474;13.710;2023-06-10T12:23:28;7.05;;;5.50;;
32748;SDS011;19119;52.474;13.710;2023-06-10T12:25:54;8.02;;;5.20;;
32748;SDS011;19119;52.474;13.710;2023-06-10T12:28:24;10.55;;;5.22;;
32748;SDS011;19119;52.474;13.710;2023-06-10T12:30:50;8.35;;;5.82;;
32748;SDS011;19119;52.474;13.710;2023-06-10T12:33:19;17.83;;;5.50;;
32748;SDS011;19119;52.474;13.710;2023-06-10T12:35:50;8.18;;;5.18;;
32748;SDS011;19119;52.474;13.710;2023-06-10T12:38:23;11.05;;;5.30;;
32748;SDS011;19119;52.474;13.710;2023-06-10T12:40:49;8.98;;;5.10;;
32748;SDS011;19119;52.474;13.710;2023-06-10T12:43:24;9.02;;;5.10;;
32748;SDS011;19119;52.474;13.710;2023-06-10T12:45:50;7.07;;;4.00;;
32748;SDS011;19119;52.474;13.710;2023-06-10T12:48:20;5.28;;;3.90;;
32748;SDS011;19119;52.474;13.710;2023-06-10T12:50:54;6.03;;;3.80;;
32748;SDS011;19119;52.474;13.710;2023-06-10T12:53:21;7.85;;;3.53;;
32748;SDS011;19119;52.474;13.710;2023-06-10T12:55:48;5.13;;;3.47;;
32748;SDS011;19119;52.474;13.710;2023-06-10T12:58:14;9.68;;;4.70;;
32748;SDS011;19119;52.474;13.710;2023-06-10T13:00:40;6.15;;;3.88;;
32748;SDS011;19119;52.474;13.710;2023-06-10T13:03:07;8.00;;;4.20;;
32748;SDS011;19119;52.474;13.710;2023-06-10T13:05:34;5.95;;;4.25;;
32748;SDS011;19119;52.474;13.710;2023-06-10T13:08:03;6.13;;;3.90;;
32748;SDS011;19119;52.474;13.710;2023-06-10T13:10:32;6.43;;;3.92;;
32748;SDS011;19119;52.474;13.710;2023-06-10T13:13:02;8.40;;;4.22;;
32748;SDS011;19119;52.474;13.710;2023-06-10T13:15:32;5.90;;;4.22;;
32748;SDS011;19119;52.474;13.710;2023-06-10T13:18:01;7.07;;;4.90;;
32748;SDS011;19119;52.474;13.710;2023-06-10T13:20:28;6.80;;;3.60;;
32748;SDS011;19119;52.474;13.710;2023-06-10T13:22:54;5.95;;;4.60;;
32748;SDS011;19119;52.474;13.710;2023-06-10T13:25:20;7.70;;;4.18;;
32748;SDS011;19119;52.474;13.710;2023-06-10T13:27:45;7.13;;;3.78;;
32748;SDS011;19119;52.474;13.710;2023-06-10T13:30:11;9.50;;;4.43;;
32748;SDS011;19119;52.474;13.710;2023-06-10T13:32:37;9.30;;;3.97;;
32748;SDS011;19119;52.474;13.710;2023-06-10T13:35:03;10.75;;;4.32;;
32748;SDS011;19119;52.474;13.710;2023-06-10T13:37:29;6.07;;;4.00;;
32748;SDS011;19119;52.474;13.710;2023-06-10T13:39:55;7.55;;;4.20;;
32748;SDS011;19119;52.474;13.710;2023-06-10T13:42:20;10.13;;;4.97;;
32748;SDS011;19119;52.474;13.710;2023-06-10T13:44:46;6.95;;;4.25;;
32748;SDS011;19119;52.474;13.710;2023-06-10T13:47:13;9.50;;;4.43;;
32748;SDS011;19119;52.474;13.710;2023-06-10T13:49:40;6.82;;;4.32;;
32748;SDS011;19119;52.474;13.710;2023-06-10T13:52:06;6.60;;;4.05;;
32748;SDS011;19119;52.474;13.710;2023-06-10T13:54:32;8.82;;;4.05;;
32748;SDS011;19119;52.474;13.710;2023-06-10T13:56:58;10.15;;;4.78;;
32748;SDS011;19119;52.474;13.710;2023-06-10T13:59:25;9.10;;;4.95;;
32748;SDS011;19119;52.474;13.710;2023-06-10T14:01:50;6.45;;;4.50;;
32748;SDS011;19119;52.474;13.710;2023-06-10T14:04:16;7.88;;;4.88;;
32748;SDS011;19119;52.474;13.710;2023-06-10T14:06:42;12.55;;;4.15;;
32748;SDS011;19119;52.474;13.710;2023-06-10T14:09:07;10.30;;;4.47;;
32748;SDS011;19119;52.474;13.710;2023-06-10T14:11:33;11.68;;;4.80;;
32748;SDS011;19119;52.474;13.710;2023-06-10T14:13:59;6.53;;;3.92;;
32748;SDS011;19119;52.474;13.710;2023-06-10T14:16:25;12.63;;;5.15;;
32748;SDS011;19119;52.474;13.710;2023-06-10T14:18:51;8.07;;;4.43;;
32748;SDS011;19119;52.474;13.710;2023-06-10T14:21:17;5.30;;;4.38;;
32748;SDS011;19119;52.474;13.710;2023-06-10T14:23:42;5.72;;;4.10;;
32748;SDS011;19119;52.474;13.710;2023-06-10T14:26:08;11.88;;;3.97;;
32748;SDS011;19119;52.474;13.710;2023-06-10T14:28:34;5.65;;;4.53;;
32748;SDS011;19119;52.474;13.710;2023-06-10T14:31:00;7.85;;;4.38;;
32748;SDS011;19119;52.474;13.710;2023-06-10T14:33:25;8.15;;;4.80;;
32748;SDS011;19119;52.474;13.710;2023-06-10T14:35:51;6.68;;;4.53;;
32748;SDS011;19119;52.474;13.710;2023-06-10T14:38:16;9.93;;;4.40;;
32748;SDS011;19119;52.474;13.710;2023-06-10T14:40:42;8.23;;;4.65;;
32748;SDS011;19119;52.474;13.710;2023-06-10T14:43:07;8.38;;;4.10;;
32748;SDS011;19119;52.474;13.710;2023-06-10T14:45:38;10.32;;;4.05;;
32748;SDS011;19119;52.474;13.710;2023-06-10T14:48:04;6.70;;;3.92;;
32748;SDS011;19119;52.474;13.710;2023-06-10T14:50:31;8.07;;;4.40;;